Time;durP1;ratioP1;P1;durP2;ratioP2;P2;SDS_P1;SDS_P2;PMS_P1;PMS_P2;Temp;Humidity;BMP_temperature;BMP_pressure;BME280_temperature;BME280_humidity;BME280_pressure;Samples;Min_cycle;Max_cycle;Signal;HPM_P1;HPM_P2
2023/09/25 00:02:03;;;;;;;1.23;0.80;;;;;;;12.83;97.50;101761.59;10472973;28;20531;-85
2023/09/25 00:07:06;;;;;;;1.13;0.70;;;;;;;12.55;98.26;101765.63;10506855;28;20047;-86
2023/09/25 00:12:08;;;;;;;3.70;0.77;;;;;;;12.36;99.30;101768.81;10481761;28;20385;-85
2023/09/25 00:17:11;;;;;;;0.90;0.68;;;;;;;12.22;99.08;101778.63;10504872;28;20037;-86
2023/09/25 00:22:16;;;;;;;2.47;0.65;;;;;;;12.16;100.00;101778.84;10529336;28;20040;-85
2023/09/25 00:27:19;;;;;;;1.67;0.90;;;;;;;12.16;100.00;101785.19;10497682;28;20508;-85
2023/09/25 00:32:21;;;;;;;1.20;0.70;;;;;;;12.08;100.00;101788.41;10482479;28;20044;-85
2023/09/25 00:37:23;;;;;;;4.45;0.80;;;;;;;12.05;100.00;101800.78;10477522;28;20033;-86
2023/09/25 00:42:26;;;;;;;2.45;0.70;;;;;;;11.99;100.00;101801.00;10490364;28;20039;-85
2023/09/25 00:47:29;;;;;;;1.52;0.75;;;;;;;11.98;100.00;101799.34;10491491;28;20056;-85
2023/09/25 00:52:33;;;;;;;0.63;0.57;;;;;;;11.96;100.00;101798.75;10490257;28;20053;-85
2023/09/25 00:57:37;;;;;;;1.80;0.90;;;;;;;11.99;100.00;101814.75;10470876;28;20048;-86
2023/09/25 01:02:40;;;;;;;1.38;0.60;;;;;;;11.98;100.00;101815.84;10509670;28;20052;-84
2023/09/25 01:07:42;;;;;;;1.08;0.80;;;;;;;11.88;99.58;101821.25;10492699;28;20071;-85
2023/09/25 01:12:48;;;;;;;2.22;0.60;;;;;;;11.99;100.00;101834.00;10458549;28;20036;-87
2023/09/25 01:17:51;;;;;;;1.95;0.80;;;;;;;11.84;99.73;101826.44;10490679;28;20529;-87
2023/09/25 01:22:54;;;;;;;0.82;0.52;;;;;;;11.82;100.00;101822.31;10489803;28;20041;-87
2023/09/25 01:27:56;;;;;;;0.70;0.65;;;;;;;11.91;99.86;101824.31;10479347;28;20511;-86
2023/09/25 01:32:59;;;;;;;1.02;0.70;;;;;;;11.80;99.55;101825.28;10474792;28;20446;-86
2023/09/25 01:38:04;;;;;;;1.35;0.65;;;;;;;11.77;99.74;101823.84;10491053;28;20053;-86
2023/09/25 01:43:06;;;;;;;3.47;0.82;;;;;;;11.74;99.54;101832.63;10494388;28;20040;-87
2023/09/25 01:48:09;;;;;;;0.80;0.70;;;;;;;11.73;99.42;101839.22;10491452;28;20056;-86
2023/09/25 01:53:11;;;;;;;4.50;1.25;;;;;;;11.68;99.75;101844.69;10487000;28;20070;-86
2023/09/25 01:58:15;;;;;;;0.60;0.50;;;;;;;11.58;99.15;101849.22;10515284;28;20041;-87
2023/09/25 02:03:18;;;;;;;2.22;0.68;;;;;;;11.52;99.13;101848.34;10485709;28;20041;-86
2023/09/25 02:08:21;;;;;;;0.60;0.60;;;;;;;11.42;99.17;101850.97;10490421;28;20044;-86
2023/09/25 02:13:26;;;;;;;0.73;0.47;;;;;;;11.36;98.64;101854.75;10529621;28;20044;-86
2023/09/25 02:18:29;;;;;;;1.63;0.73;;;;;;;11.29;98.57;101849.47;10500848;28;20081;-86
2023/09/25 02:23:32;;;;;;;1.65;0.50;;;;;;;11.25;98.69;101863.94;10535808;28;20048;-85
2023/09/25 02:28:34;;;;;;;2.38;0.70;;;;;;;11.22;98.01;101872.72;10511644;28;20052;-86
2023/09/25 02:33:40;;;;;;;1.02;0.60;;;;;;;11.12;98.22;101885.25;10475781;28;20045;-86
2023/09/25 02:38:42;;;;;;;1.15;0.60;;;;;;;11.11;98.38;101893.75;10499887;28;20051;-86
2023/09/25 02:43:47;;;;;;;1.77;0.70;;;;;;;11.07;98.23;101898.88;10495863;28;20032;-86
2023/09/25 02:48:49;;;;;;;1.35;0.90;;;;;;;11.00;98.49;101900.16;10512080;28;20503;-86
2023/09/25 02:53:52;;;;;;;0.88;0.80;;;;;;;11.18;98.74;101910.88;10528889;28;20055;-88
2023/09/25 02:58:54;;;;;;;1.30;0.88;;;;;;;11.07;98.58;101912.63;10505051;28;20045;-86
2023/09/25 03:03:57;;;;;;;1.30;0.70;;;;;;;11.14;98.62;101924.28;10473534;28;20037;-86
2023/09/25 03:08:59;;;;;;;0.75;0.70;;;;;;;11.01;98.77;101916.41;10472242;28;20798;-87
2023/09/25 03:14:03;;;;;;;1.35;0.80;;;;;;;11.06;98.97;101921.13;10488338;28;20040;-86
2023/09/25 03:19:05;;;;;;;0.55;0.55;;;;;;;11.10;99.10;101930.50;10511885;28;20407;-86
2023/09/25 03:24:08;;;;;;;3.30;0.95;;;;;;;11.06;98.52;101930.19;10486288;28;20032;-85
2023/09/25 03:29:10;;;;;;;3.20;0.82;;;;;;;11.07;99.40;101939.25;10519719;28;20045;-86
2023/09/25 03:34:12;;;;;;;3.15;1.02;;;;;;;11.04;99.36;101942.53;10529547;28;20513;-85
2023/09/25 03:39:14;;;;;;;1.08;0.80;;;;;;;11.05;99.25;101953.25;10504861;28;20512;-86
2023/09/25 03:44:17;;;;;;;0.82;0.82;;;;;;;11.06;99.06;101956.84;10508414;28;20043;-87
2023/09/25 03:49:19;;;;;;;0.90;0.82;;;;;;;11.10;99.16;101957.97;10500915;28;20040;-86
2023/09/25 03:54:21;;;;;;;1.00;0.73;;;;;;;11.20;99.45;101965.56;10520218;28;20052;-85
2023/09/25 03:59:26;;;;;;;1.23;0.82;;;;;;;11.26;99.24;101975.53;10517475;28;20033;-86
2023/09/25 04:04:28;;;;;;;3.45;0.80;;;;;;;11.28;98.32;101974.22;10480685;28;20040;-87
2023/09/25 04:09:31;;;;;;;0.80;0.80;;;;;;;11.51;97.56;101980.56;10515749;28;20036;-86
2023/09/25 04:14:35;;;;;;;1.13;1.00;;;;;;;12.59;94.58;101979.59;10508052;28;20192;-88
2023/09/25 04:19:38;;;;;;;2.10;0.95;;;;;;;13.33;87.98;101984.28;10495282;28;20067;-85
2023/09/25 04:24:41;;;;;;;0.70;0.70;;;;;;;13.76;84.52;102001.63;10494074;28;20065;-86
2023/09/25 04:30:00;;;;;;;1.67;0.70;;;;;;;14.16;81.78;102006.44;10475283;28;20033;-85
2023/09/25 04:35:46;;;;;;;1.00;0.82;;;;;;;14.51;80.53;102019.53;10504010;28;20041;-86
2023/09/25 04:40:49;;;;;;;2.22;0.95;;;;;;;15.14;77.60;102036.69;10519449;28;20402;-86
2023/09/25 04:45:52;;;;;;;1.17;0.90;;;;;;;14.34;79.17;102038.25;10523373;28;20056;-85
2023/09/25 04:50:55;;;;;;;1.58;1.20;;;;;;;13.64;81.82;102047.91;10530119;28;20389;-86
2023/09/25 04:56:06;;;;;;;1.13;0.93;;;;;;;13.24;83.91;102057.56;10508257;28;20058;-85
2023/09/25 05:01:10;;;;;;;1.55;0.93;;;;;;;14.07;81.40;102053.09;10515293;28;20041;-85
2023/09/25 05:06:14;;;;;;;1.67;1.13;;;;;;;15.02;78.83;102066.56;10497509;28;20051;-85
2023/09/25 05:11:17;;;;;;;4.50;1.45;;;;;;;16.56;72.30;102066.69;10495470;28;20040;-85
2023/09/25 05:16:19;;;;;;;3.15;1.38;;;;;;;17.59;68.72;102070.28;10493957;28;20044;-86
2023/09/25 05:21:21;;;;;;;2.35;1.33;;;;;;;18.11;66.79;102070.56;10525604;28;20143;-87
2023/09/25 05:26:25;;;;;;;3.38;1.30;;;;;;;17.96;66.71;102077.13;10532095;28;20553;-86
2023/09/25 05:31:27;;;;;;;3.10;1.65;;;;;;;18.20;65.49;102074.31;10516436;28;20514;-86
2023/09/25 05:36:30;;;;;;;1.40;1.00;;;;;;;18.59;64.01;102063.78;10530062;28;20041;-86
2023/09/25 05:41:36;;;;;;;1.55;1.10;;;;;;;19.21;61.16;102066.44;10522136;28;20033;-86
2023/09/25 05:46:39;;;;;;;3.38;0.95;;;;;;;18.44;62.86;102065.97;10490038;28;20044;-87
2023/09/25 05:51:42;;;;;;;1.20;1.10;;;;;;;19.23;61.06;102086.44;10474365;28;20055;-87
2023/09/25 05:56:45;;;;;;;1.95;0.98;;;;;;;19.79;59.62;102102.19;10522642;28;20072;-87
2023/09/25 06:01:51;;;;;;;1.65;1.15;;;;;;;19.93;59.07;102110.53;10535122;28;20045;-86
2023/09/25 06:06:55;;;;;;;8.45;1.77;;;;;;;19.88;59.02;102111.47;10533077;28;20047;-85
2023/09/25 06:11:58;;;;;;;5.30;1.30;;;;;;;20.60;57.18;102136.75;10532996;28;20044;-84
2023/09/25 06:17:02;;;;;;;4.78;1.40;;;;;;;20.70;56.65;102133.75;10508798;28;20422;-87
2023/09/25 06:22:04;;;;;;;3.67;1.20;;;;;;;19.25;60.94;102142.63;10527384;28;20503;-85
2023/09/25 06:27:08;;;;;;;6.38;1.27;;;;;;;18.49;62.35;102152.88;10513611;28;20055;-84
2023/09/25 06:32:11;;;;;;;3.80;1.40;;;;;;;18.30;65.23;102150.06;10526359;28;20068;-85
2023/09/25 06:37:13;;;;;;;2.20;1.10;;;;;;;19.86;61.07;102153.56;10532431;28;20060;-85
2023/09/25 06:42:16;;;;;;;3.20;1.20;;;;;;;19.36;61.08;102171.13;10495537;28;20052;-88
2023/09/25 06:47:18;;;;;;;1.80;1.10;;;;;;;18.72;64.87;102173.44;10461304;28;20036;-85
2023/09/25 06:52:20;;;;;;;3.20;1.38;;;;;;;20.80;58.07;102182.88;10526437;28;20052;-85
2023/09/25 06:57:23;;;;;;;3.83;1.35;;;;;;;21.17;56.84;102192.91;10488137;28;20045;-85
2023/09/25 07:02:25;;;;;;;2.47;1.10;;;;;;;20.83;57.54;102201.00;10500430;28;20047;-85
2023/09/25 07:07:27;;;;;;;1.63;1.00;;;;;;;21.33;55.69;102202.63;10502850;28;20043;-84
2023/09/25 07:12:30;;;;;;;1.23;0.88;;;;;;;20.10;59.56;102205.50;10485412;28;20045;-84
2023/09/25 07:17:34;;;;;;;1.13;1.00;;;;;;;20.95;56.07;102209.63;10506234;28;20071;-85
2023/09/25 07:22:36;;;;;;;2.33;1.00;;;;;;;21.87;53.70;102225.06;10529760;28;20036;-83
2023/09/25 07:27:38;;;;;;;3.33;1.00;;;;;;;21.07;57.23;102215.50;10535246;28;20042;-84
2023/09/25 07:32:42;;;;;;;1.30;1.00;;;;;;;21.38;56.28;102214.81;10501100;28;20032;-83
2023/09/25 07:37:45;;;;;;;0.73;0.70;;;;;;;19.75;60.33;102223.69;10508009;28;20040;-87
2023/09/25 07:42:47;;;;;;;1.70;0.90;;;;;;;19.85;59.20;102226.31;10540976;28;20054;-86
2023/09/25 07:47:49;;;;;;;0.93;0.70;;;;;;;19.49;60.50;102229.66;10513438;28;20423;-86
2023/09/25 07:52:55;;;;;;;1.15;0.85;;;;;;;22.17;53.82;102237.41;10485395;28;20055;-86
2023/09/25 07:57:59;;;;;;;1.30;0.90;;;;;;;19.59;59.17;102242.59;10481480;28;20400;-87
2023/09/25 08:03:01;;;;;;;2.88;1.00;;;;;;;20.70;57.00;102239.75;10539173;28;20040;-86
2023/09/25 08:08:28;;;;;;;1.65;1.10;;;;;;;22.21;52.70;102244.00;10537459;28;20048;-88
2023/09/25 08:13:53;;;;;;;2.33;1.30;;;;;;;22.02;54.66;102257.34;10450350;28;20108;-90
2023/09/25 08:18:56;;;;;;;2.70;1.30;;;;;;;23.20;50.25;102248.13;10476842;28;20135;-91
2023/09/25 08:23:59;;;;;;;2.17;1.55;;;;;;;22.51;51.96;102254.34;10447013;28;20055;-93
2023/09/25 08:29:05;;;;;;;1.95;1.20;;;;;;;21.05;55.84;102245.69;10479530;28;20040;-93
2023/09/25 08:34:08;;;;;;;3.25;1.30;;;;;;;20.36;57.46;102262.44;10455429;28;20059;-94
2023/09/25 08:39:13;;;;;;;1.77;1.23;;;;;;;19.55;59.93;102273.00;10469733;28;20055;-94
2023/09/25 08:44:16;;;;;;;2.38;1.60;;;;;;;20.77;55.90;102284.78;10467542;28;20048;-93
2023/09/25 08:49:18;;;;;;;2.22;1.42;;;;;;;18.88;60.82;102285.34;10455569;28;20120;-92
2023/09/25 08:54:22;;;;;;;1.30;1.17;;;;;;;17.81;66.69;102297.50;10481624;28;20044;-92
2023/09/25 08:59:25;;;;;;;2.45;1.80;;;;;;;18.45;64.54;102278.88;10494218;28;20045;-92
2023/09/25 09:04:29;;;;;;;0.98;0.88;;;;;;;17.59;67.32;102275.72;10523511;28;20087;-92
2023/09/25 09:09:32;;;;;;;1.35;0.90;;;;;;;17.36;67.22;102293.09;10513296;28;20048;-91
2023/09/25 09:14:40;;;;;;;1.83;1.30;;;;;;;17.29;68.11;102301.69;10452553;28;20079;-93
2023/09/25 09:19:45;;;;;;;;;;;;;;;17.27;67.46;102292.00;10464904;28;20139;-91
2023/09/25 09:24:51;;;;;;;4.05;1.20;;;;;;;17.18;67.96;102300.94;10487711;28;19926;-92
2023/09/25 09:29:57;;;;;;;1.02;0.93;;;;;;;17.32;67.40;102311.41;10458283;28;20032;-92
2023/09/25 09:35:05;;;;;;;1.85;1.38;;;;;;;17.41;67.16;102301.38;10442355;28;20051;-92
2023/09/25 09:40:11;;;;;;;1.25;1.08;;;;;;;17.07;67.55;102304.03;10442415;28;20049;-92
2023/09/25 09:45:15;;;;;;;3.63;1.15;;;;;;;17.14;66.88;102316.47;10475533;28;20043;-91
2023/09/25 09:50:21;;;;;;;2.22;1.20;;;;;;;17.05;67.56;102320.13;10452324;28;20041;-92
2023/09/25 09:55:24;;;;;;;1.07;1.00;;;;;;;17.34;66.84;102314.72;10469174;28;20049;-92
2023/09/25 10:00:26;;;;;;;1.67;1.20;;;;;;;17.40;66.18;102324.69;10488825;28;20075;-92
2023/09/25 10:05:30;;;;;;;1.50;1.00;;;;;;;17.32;66.10;102333.59;10483262;28;20044;-92
2023/09/25 10:10:40;;;;;;;1.48;1.08;;;;;;;17.21;65.48;102338.38;10446338;28;20041;-92
2023/09/25 10:16:01;;;;;;;2.17;1.38;;;;;;;17.46;65.85;102331.84;10487591;28;20071;-92
2023/09/25 10:21:09;;;;;;;2.05;1.15;;;;;;;17.05;67.00;102345.09;10475297;28;20058;-93
2023/09/25 10:26:20;;;;;;;2.42;1.17;;;;;;;16.87;66.49;102341.84;10472526;28;20036;-92
2023/09/25 10:31:25;;;;;;;1.77;1.45;;;;;;;16.66;66.72;102340.22;10471488;28;20508;-92
2023/09/25 10:36:40;;;;;;;1.40;1.08;;;;;;;16.23;67.18;102344.41;10450722;28;20572;-92
2023/09/25 10:41:44;;;;;;;3.35;1.00;;;;;;;16.29;66.13;102344.13;10446822;28;20041;-93
2023/09/25 10:46:46;;;;;;;2.30;1.00;;;;;;;16.12;65.77;102339.97;10432201;28;20542;-92
2023/09/25 10:51:49;;;;;;;1.00;0.80;;;;;;;16.20;65.49;102344.97;10465802;28;20048;-94
2023/09/25 10:56:52;;;;;;;2.25;0.90;;;;;;;16.62;64.09;102347.41;10461314;28;20055;-92
2023/09/25 11:01:54;;;;;;;1.13;0.93;;;;;;;16.88;64.52;102350.97;10446071;28;20043;-92
2023/09/25 11:06:57;;;;;;;1.85;1.13;;;;;;;16.74;66.68;102366.53;10471004;28;20049;-92
2023/09/25 11:12:00;;;;;;;2.75;1.40;;;;;;;16.98;65.49;102361.19;10444389;28;20045;-93
2023/09/25 11:17:03;;;;;;;5.15;1.05;;;;;;;16.72;65.35;102363.22;10444119;28;20036;-94
2023/09/25 11:22:06;;;;;;;4.07;1.13;;;;;;;16.96;65.10;102363.41;10440969;28;20032;-92
2023/09/25 11:27:08;;;;;;;1.60;0.98;;;;;;;17.20;64.77;102371.97;10484777;28;20601;-93
2023/09/25 11:32:11;;;;;;;3.63;0.90;;;;;;;17.13;64.43;102375.84;10468287;28;20033;-93
2023/09/25 11:37:20;;;;;;;1.98;1.10;;;;;;;16.92;65.26;102362.34;10485248;28;20049;-93
2023/09/25 11:42:24;;;;;;;1.13;0.90;;;;;;;16.94;65.96;102360.09;10484046;28;20058;-94
2023/09/25 11:47:26;;;;;;;2.15;0.88;;;;;;;16.66;66.54;102358.75;10483515;28;20044;-92
2023/09/25 11:52:29;;;;;;;1.65;1.00;;;;;;;16.58;67.33;102365.69;10483948;28;20047;-93
2023/09/25 11:57:31;;;;;;;1.33;0.82;;;;;;;16.49;66.90;102362.69;10441959;28;20044;-92
2023/09/25 12:02:36;;;;;;;2.17;1.10;;;;;;;16.75;65.35;102352.41;10452793;28;20033;-92
2023/09/25 12:07:38;;;;;;;1.60;0.80;;;;;;;16.87;65.98;102346.56;10436025;28;20055;-90
2023/09/25 12:12:44;;;;;;;2.00;0.85;;;;;;;16.93;65.08;102347.34;10521089;28;20102;-90
2023/09/25 12:17:48;;;;;;;1.35;0.90;;;;;;;16.78;65.66;102357.38;10507604;28;20039;-91
2023/09/25 12:22:55;;;;;;;2.20;1.00;;;;;;;16.92;65.22;102352.06;10468622;28;20043;-88
2023/09/25 12:27:57;;;;;;;1.50;1.00;;;;;;;16.88;65.88;102349.03;10500197;28;20041;-89
2023/09/25 12:33:00;;;;;;;1.30;1.05;;;;;;;16.58;66.69;102344.38;10490707;28;20048;-88
2023/09/25 12:38:03;;;;;;;1.70;1.00;;;;;;;16.31;68.09;102354.09;10493010;28;20039;-90
2023/09/25 12:43:05;;;;;;;1.38;0.70;;;;;;;16.15;68.10;102353.28;10511801;28;20429;-85
2023/09/25 12:48:08;;;;;;;2.30;0.90;;;;;;;16.18;67.29;102355.50;10455628;28;20052;-90
2023/09/25 12:53:13;;;;;;;0.98;0.75;;;;;;;16.16;66.97;102361.31;10491241;28;20495;-90
2023/09/25 12:58:15;;;;;;;2.92;0.93;;;;;;;16.53;65.78;102362.94;10462333;28;20037;-90
2023/09/25 13:03:17;;;;;;;1.70;0.80;;;;;;;16.62;66.12;102363.19;10465136;28;20040;-87
2023/09/25 13:08:20;;;;;;;1.65;0.77;;;;;;;16.81;64.78;102367.06;10486878;28;20048;-82
2023/09/25 13:13:22;;;;;;;2.00;0.93;;;;;;;16.68;63.19;102364.91;10497313;28;20047;-84
2023/09/25 13:18:25;;;;;;;1.27;0.98;;;;;;;16.54;62.48;102367.38;10489783;28;20170;-87
2023/09/25 13:23:27;;;;;;;2.90;1.40;;;;;;;16.43;62.74;102371.25;10490044;28;20055;-85
2023/09/25 13:28:30;;;;;;;0.80;0.80;;;;;;;16.40;62.81;102364.34;10522397;28;20561;-88
2023/09/25 13:33:32;;;;;;;3.30;0.80;;;;;;;16.43;62.36;102372.09;10514626;28;20035;-82
2023/09/25 13:38:34;;;;;;;3.17;1.05;;;;;;;16.36;63.02;102370.72;10521145;28;20045;-83
2023/09/25 13:43:40;;;;;;;2.70;0.98;;;;;;;16.35;65.46;102378.22;10485478;28;20051;-84
2023/09/25 13:48:43;;;;;;;0.50;0.50;;;;;;;16.31;66.15;102374.31;10509899;28;20037;-83
2023/09/25 13:53:47;;;;;;;1.40;0.80;;;;;;;15.84;68.01;102388.41;10512726;28;20045;-88
2023/09/25 13:58:50;;;;;;;1.58;0.60;;;;;;;15.59;68.92;102380.84;10518444;28;20049;-91
2023/09/25 14:03:52;;;;;;;2.78;0.70;;;;;;;15.49;69.24;102369.75;10470427;28;20032;-83
2023/09/25 14:08:56;;;;;;;2.50;0.88;;;;;;;15.63;68.73;102368.16;10510129;28;20035;-84
2023/09/25 14:13:58;;;;;;;0.70;0.50;;;;;;;15.44;68.53;102366.94;10540990;28;20051;-84
2023/09/25 14:19:00;;;;;;;2.58;0.88;;;;;;;15.54;68.77;102367.81;10513519;28;20045;-84
2023/09/25 14:24:03;;;;;;;2.40;0.75;;;;;;;15.42;68.55;102361.69;10515283;28;20037;-84
2023/09/25 14:29:05;;;;;;;1.02;0.77;;;;;;;15.41;68.82;102373.84;10511837;28;20052;-83
2023/09/25 14:34:08;;;;;;;1.98;0.88;;;;;;;15.34;69.28;102363.06;10521801;28;20071;-89
2023/09/25 14:39:10;;;;;;;1.52;0.70;;;;;;;15.39;68.87;102359.47;10480041;28;20043;-85
2023/09/25 14:44:16;;;;;;;0.90;0.70;;;;;;;15.22;70.31;102362.44;10499826;28;20063;-90
2023/09/25 14:49:18;;;;;;;2.05;1.00;;;;;;;15.07;70.44;102376.19;10506138;28;20072;-91
2023/09/25 14:54:20;;;;;;;2.28;1.00;;;;;;;14.81;71.50;102371.66;10506009;28;20140;-92
2023/09/25 14:59:22;;;;;;;0.85;0.63;;;;;;;14.63;72.65;102373.75;10479428;28;20036;-92
2023/09/25 15:04:25;;;;;;;0.70;0.65;;;;;;;14.81;73.31;102377.19;10459969;28;20036;-94
2023/09/25 15:09:28;;;;;;;2.17;0.93;;;;;;;14.66;73.06;102375.16;10506328;28;20036;-92
2023/09/25 15:14:30;;;;;;;2.17;1.10;;;;;;;14.72;73.58;102371.31;10465909;28;20534;-90
2023/09/25 15:19:37;;;;;;;1.38;0.93;;;;;;;14.58;73.81;102379.25;10475092;28;20496;-92
2023/09/25 15:24:39;;;;;;;1.20;0.70;;;;;;;14.66;73.74;102375.97;10435116;28;20053;-93
2023/09/25 15:29:43;;;;;;;1.70;1.00;;;;;;;14.50;74.39;102367.84;10450447;28;20041;-88
2023/09/25 15:34:46;;;;;;;2.80;1.08;;;;;;;14.39;73.65;102376.00;10477549;28;20048;-92
2023/09/25 15:39:48;;;;;;;2.88;1.52;;;;;;;14.49;74.01;102378.06;10483348;28;20036;-94
2023/09/25 15:44:50;;;;;;;3.00;1.48;;;;;;;14.44;73.79;102369.75;10444570;28;20044;-82
2023/09/25 15:49:53;;;;;;;4.30;1.50;;;;;;;14.25;74.45;102371.22;10524988;28;20036;-86
2023/09/25 15:54:55;;;;;;;2.30;1.65;;;;;;;14.29;74.15;102375.94;10520021;28;20047;-89
2023/09/25 15:59:57;;;;;;;3.28;1.40;;;;;;;14.31;74.22;102370.16;10493777;28;20062;-87
2023/09/25 16:04:59;;;;;;;1.80;1.20;;;;;;;14.34;74.21;102373.22;10510004;28;20467;-87
2023/09/25 16:10:02;;;;;;;2.45;1.50;;;;;;;14.26;74.47;102383.94;10486203;28;20040;-87
2023/09/25 16:15:05;;;;;;;4.60;1.98;;;;;;;14.38;74.45;102377.13;10510553;28;20044;-86
2023/09/25 16:20:07;;;;;;;4.40;1.63;;;;;;;14.42;74.35;102378.28;10505714;28;20411;-85
2023/09/25 16:25:11;;;;;;;2.83;1.45;;;;;;;14.29;74.36;102387.00;10517193;28;20040;-85
2023/09/25 16:30:13;;;;;;;3.10;1.23;;;;;;;14.31;75.09;102389.50;10509150;28;20056;-85
2023/09/25 16:35:20;;;;;;;1.63;1.20;;;;;;;14.43;74.72;102382.72;10515677;28;20044;-86
2023/09/25 16:40:22;;;;;;;3.47;1.70;;;;;;;14.33;74.82;102387.28;10525557;28;20036;-85
2023/09/25 16:45:26;;;;;;;1.52;1.30;;;;;;;14.39;74.65;102378.78;10507428;28;20044;-85
2023/09/25 16:50:28;;;;;;;1.95;1.00;;;;;;;14.29;75.05;102388.94;10508995;28;20055;-86
2023/09/25 16:55:31;;;;;;;2.45;1.30;;;;;;;14.38;74.55;102379.88;10516961;28;20053;-86
2023/09/25 17:00:34;;;;;;;2.60;1.00;;;;;;;14.33;74.21;102379.00;10485210;28;20046;-87
2023/09/25 17:05:41;;;;;;;1.75;0.98;;;;;;;14.20;75.15;102383.03;10507063;28;20033;-86
2023/09/25 17:10:43;;;;;;;2.55;1.10;;;;;;;14.30;74.40;102376.78;10500549;28;20044;-85
2023/09/25 17:15:45;;;;;;;5.43;1.05;;;;;;;14.33;74.58;102371.56;10492992;28;20033;-85
2023/09/25 17:20:51;;;;;;;2.95;1.13;;;;;;;14.25;75.16;102361.00;10521450;28;20040;-85
2023/09/25 17:25:54;;;;;;;5.22;1.48;;;;;;;14.19;75.62;102356.53;10507851;28;20033;-85
2023/09/25 17:31:04;;;;;;;3.42;1.30;;;;;;;14.23;77.38;102349.41;10504621;28;20051;-92
2023/09/25 17:36:07;;;;;;;3.17;1.52;;;;;;;14.27;77.42;102344.19;10474714;28;20048;-90
2023/09/25 17:41:10;;;;;;;2.90;1.35;;;;;;;14.22;77.19;102341.34;10485689;28;20040;-86
2023/09/25 17:46:13;;;;;;;2.08;1.10;;;;;;;14.23;76.89;102343.88;10498104;28;20518;-87
2023/09/25 17:51:16;;;;;;;1.77;1.40;;;;;;;14.22;76.70;102346.88;10510292;28;20534;-90
2023/09/25 17:56:20;;;;;;;2.72;1.58;;;;;;;14.09;76.22;102353.69;10480020;28;20052;-89
2023/09/25 18:01:22;;;;;;;2.70;1.50;;;;;;;13.95;75.22;102347.78;10516139;28;20055;-87
2023/09/25 18:06:24;;;;;;;2.53;1.63;;;;;;;14.03;75.28;102336.25;10507102;28;20043;-87
2023/09/25 18:11:27;;;;;;;2.92;1.58;;;;;;;14.04;73.71;102329.63;10500403;28;20159;-93
2023/09/25 18:16:30;;;;;;;2.40;1.35;;;;;;;13.88;73.38;102338.84;10461288;28;20063;-86
2023/09/25 18:21:33;;;;;;;2.22;1.45;;;;;;;13.86;74.22;102339.13;10486778;28;20041;-84
2023/09/25 18:26:35;;;;;;;2.67;1.10;;;;;;;13.86;73.40;102330.00;10545258;28;20043;-82
2023/09/25 18:31:37;;;;;;;1.85;1.00;;;;;;;13.78;72.99;102339.63;10539183;28;20055;-82
2023/09/25 18:36:39;;;;;;;3.00;1.55;;;;;;;13.75;72.93;102334.63;10532332;28;20040;-82
2023/09/25 18:41:48;;;;;;;1.50;1.02;;;;;;;13.94;73.35;102337.00;10509763;28;20045;-80
2023/09/25 18:46:51;;;;;;;1.17;0.80;;;;;;;13.88;73.31;102338.84;10514464;28;20044;-82
2023/09/25 18:51:54;;;;;;;2.35;1.00;;;;;;;13.83;73.03;102341.59;10521999;28;20612;-83
2023/09/25 18:56:58;;;;;;;2.70;1.10;;;;;;;13.84;72.65;102343.25;10521182;28;20097;-83
2023/09/25 19:02:03;;;;;;;2.00;1.02;;;;;;;13.79;73.51;102344.03;10538741;28;20055;-85
2023/09/25 19:07:06;;;;;;;3.13;1.20;;;;;;;13.70;72.80;102333.72;10489009;28;20037;-84
2023/09/25 19:12:08;;;;;;;1.15;0.93;;;;;;;13.79;73.07;102345.97;10498238;28;20040;-84
2023/09/25 19:17:11;;;;;;;1.27;0.75;;;;;;;13.70;72.25;102342.00;10501329;28;20040;-86
2023/09/25 19:22:14;;;;;;;1.58;1.00;;;;;;;13.63;73.51;102333.09;10515791;28;20032;-84
2023/09/25 19:27:25;;;;;;;2.33;1.10;;;;;;;13.52;73.26;102333.00;10517242;28;20045;-84
2023/09/25 19:32:28;;;;;;;0.73;0.73;;;;;;;13.57;73.60;102327.53;10493935;28;20211;-83
2023/09/25 19:37:30;;;;;;;1.70;1.02;;;;;;;13.48;74.00;102319.97;10513451;28;20037;-84
2023/09/25 19:42:42;;;;;;;2.33;1.00;;;;;;;13.40;74.73;102318.53;10497282;28;20046;-87
2023/09/25 19:47:44;;;;;;;2.78;1.02;;;;;;;13.50;75.21;102310.34;10508270;28;20059;-82
2023/09/25 19:52:49;;;;;;;1.73;1.02;;;;;;;13.45;75.04;102310.31;10528949;28;20048;-84
2023/09/25 19:57:52;;;;;;;3.13;0.95;;;;;;;13.45;75.14;102318.59;10524301;28;20042;-83
2023/09/25 20:02:57;;;;;;;2.33;1.10;;;;;;;13.49;75.63;102313.38;10536700;28;20028;-83
2023/09/25 20:08:00;;;;;;;2.38;1.05;;;;;;;13.34;75.41;102307.69;10525905;28;20075;-85
2023/09/25 20:13:03;;;;;;;1.40;1.08;;;;;;;13.42;75.21;102305.31;10517686;28;20420;-85
2023/09/25 20:18:05;;;;;;;2.92;1.38;;;;;;;13.41;75.79;102308.34;10498542;28;20040;-84
2023/09/25 20:23:07;;;;;;;1.52;0.73;;;;;;;13.50;75.42;102317.78;10487352;28;20036;-85
2023/09/25 20:28:12;;;;;;;2.85;0.93;;;;;;;13.57;74.58;102315.69;10499430;28;20044;-86
2023/09/25 20:33:14;;;;;;;1.92;1.15;;;;;;;13.51;74.91;102314.78;10500040;28;20032;-84
2023/09/25 20:38:17;;;;;;;1.48;0.80;;;;;;;13.45;75.66;102312.22;10517769;28;20072;-86
2023/09/25 20:43:20;;;;;;;2.05;0.80;;;;;;;13.32;75.96;102327.25;10512773;28;20855;-86
2023/09/25 20:48:23;;;;;;;1.90;1.10;;;;;;;13.32;75.95;102327.25;10503604;28;20093;-86
2023/09/25 20:53:25;;;;;;;2.58;1.30;;;;;;;13.44;75.61;102322.44;10513457;28;20565;-86
2023/09/25 20:58:28;;;;;;;2.63;1.30;;;;;;;13.36;75.98;102319.28;10543048;28;20032;-90
2023/09/25 21:03:30;;;;;;;8.45;1.60;;;;;;;13.28;76.27;102329.69;10500111;28;20090;-90
2023/09/25 21:08:33;;;;;;;2.42;1.05;;;;;;;13.23;76.87;102334.34;10526857;28;20040;-88
2023/09/25 21:13:36;;;;;;;3.00;1.15;;;;;;;13.19;77.18;102331.25;10471920;28;20078;-89
2023/09/25 21:18:39;;;;;;;2.47;1.15;;;;;;;13.05;77.88;102334.63;10481011;28;20032;-89
2023/09/25 21:23:42;;;;;;;2.25;1.10;;;;;;;13.04;78.17;102336.56;10511784;28;20044;-88
2023/09/25 21:28:45;;;;;;;3.70;1.48;;;;;;;12.92;78.54;102333.91;10474415;28;20040;-89
2023/09/25 21:33:51;;;;;;;1.90;1.10;;;;;;;12.83;78.44;102340.09;10500191;28;20040;-94
2023/09/25 21:38:54;;;;;;;3.65;1.38;;;;;;;12.90;79.12;102340.78;10447478;28;20496;-87
2023/09/25 21:43:56;;;;;;;4.28;1.27;;;;;;;12.86;79.30;102356.16;10477760;28;20037;-87
2023/09/25 21:48:59;;;;;;;1.88;1.15;;;;;;;12.88;79.47;102354.81;10485398;28;20048;-87
2023/09/25 21:54:03;;;;;;;1.45;1.00;;;;;;;12.96;78.98;102351.59;10505743;28;20063;-86
2023/09/25 21:59:07;;;;;;;2.50;1.20;;;;;;;12.80;79.24;102359.91;10495646;28;20054;-85
2023/09/25 22:04:10;;;;;;;3.80;1.40;;;;;;;12.72;79.44;102354.84;10523914;28;20047;-84
2023/09/25 22:09:12;;;;;;;4.30;1.40;;;;;;;12.75;79.58;102360.66;10516298;28;20105;-83
2023/09/25 22:14:15;;;;;;;4.75;1.60;;;;;;;12.65;80.32;102355.00;10533031;28;20029;-83
2023/09/25 22:19:19;;;;;;;1.63;1.20;;;;;;;12.71;80.26;102358.69;10532583;28;20072;-83
2023/09/25 22:24:22;;;;;;;1.95;1.20;;;;;;;12.82;79.90;102366.81;10514099;28;20043;-83
2023/09/25 22:29:24;;;;;;;2.63;1.33;;;;;;;12.86;80.66;102361.66;10532070;28;20127;-83
2023/09/25 22:34:26;;;;;;;2.05;1.45;;;;;;;13.02;79.82;102354.44;10533766;28;20074;-83
2023/09/25 22:39:29;;;;;;;4.90;1.48;;;;;;;12.93;79.45;102363.13;10530854;28;20074;-83
2023/09/25 22:44:33;;;;;;;3.55;1.42;;;;;;;12.94;79.98;102356.53;10488477;28;20040;-83
2023/09/25 22:49:38;;;;;;;2.67;1.30;;;;;;;12.86;79.61;102362.50;10460728;28;20048;-83
2023/09/25 22:54:41;;;;;;;3.90;1.45;;;;;;;12.66;80.50;102345.66;10497529;28;20055;-82
2023/09/25 22:59:43;;;;;;;2.22;1.40;;;;;;;12.63;81.13;102346.16;10495926;28;20392;-83
2023/09/25 23:04:46;;;;;;;3.22;1.90;;;;;;;12.57;80.99;102358.19;10492442;28;20045;-83
2023/09/25 23:09:48;;;;;;;2.13;1.38;;;;;;;12.57;81.16;102352.69;10465311;28;20040;-84
2023/09/25 23:14:51;;;;;;;6.85;1.70;;;;;;;12.37;81.85;102343.03;10503693;28;20037;-82